Time;durP1;ratioP1;P1;durP2;ratioP2;P2;SDS_P1;SDS_P2;PMS_P1;PMS_P2;Temp;Humidity;BMP_temperature;BMP_pressure;BME280_temperature;BME280_humidity;BME280_pressure;Samples;Min_cycle;Max_cycle;Signal;HPM_P1;HPM_P2
2022/05/31 00:01:55;;;;;;;2.80;2.20;;;;;;;8.32;88.88;95462.94;5032323;28;21361;-74
2022/05/31 00:04:21;;;;;;;3.17;1.67;;;;;;;8.29;89.58;95460.53;5032272;28;20768;-74
2022/05/31 00:06:48;;;;;;;2.33;1.73;;;;;;;8.25;88.97;95461.63;5032223;28;24466;-74
2022/05/31 00:09:15;;;;;;;2.78;1.55;;;;;;;8.16;86.30;95451.84;5032126;28;24432;-74
2022/05/31 00:11:42;;;;;;;2.80;1.60;;;;;;;8.17;85.65;95451.75;5032190;28;24435;-74
2022/05/31 00:14:09;;;;;;;2.37;1.30;;;;;;;7.98;84.78;95454.56;5031771;28;20776;-74
2022/05/31 00:16:37;;;;;;;2.73;1.47;;;;;;;7.68;86.62;95456.31;5031606;28;25000;-74
2022/05/31 00:19:04;;;;;;;1.60;1.27;;;;;;;7.49;88.72;95453.91;5031883;28;24475;-74
2022/05/31 00:21:38;;;;;;;2.42;1.30;;;;;;;7.45;87.99;95450.72;5037106;23;24463;-74
2022/05/31 00:24:06;;;;;;;2.85;1.58;;;;;;;7.42;88.29;95444.91;5011964;28;24467;-75
2022/05/31 00:26:32;;;;;;;2.25;1.60;;;;;;;7.37;89.66;95445.13;5011900;28;24475;-74
2022/05/31 00:28:59;;;;;;;6.63;1.67;;;;;;;7.30;90.98;95450.72;5011751;28;25756;-75
2022/05/31 00:31:25;;;;;;;2.25;1.60;;;;;;;7.25;92.14;95443.25;5011871;28;24441;-74
2022/05/31 00:33:53;;;;;;;3.75;1.73;;;;;;;7.22;93.33;95445.97;5011399;28;24440;-74
2022/05/31 00:36:20;;;;;;;2.40;1.58;;;;;;;7.26;92.82;95444.88;5011629;28;24439;-74
2022/05/31 00:38:47;;;;;;;2.70;2.13;;;;;;;7.30;93.12;95446.38;5011389;28;24481;-74
2022/05/31 00:41:24;;;;;;;3.50;1.88;;;;;;;7.32;93.51;95444.56;5011272;28;25024;-74
2022/05/31 00:43:52;;;;;;;3.40;1.90;;;;;;;7.32;93.47;95449.72;5011725;28;24806;-75
2022/05/31 00:46:21;;;;;;;2.85;1.70;;;;;;;7.34;94.21;95447.91;5011388;28;25011;-74
2022/05/31 00:48:56;;;;;;;3.33;2.10;;;;;;;7.42;94.16;95447.47;5011520;28;25037;-74
2022/05/31 00:51:27;;;;;;;2.55;1.85;;;;;;;7.42;92.24;95452.63;5011476;28;20844;-74
2022/05/31 00:53:58;;;;;;;2.55;1.90;;;;;;;7.58;90.99;95448.28;5011212;28;25173;-74
2022/05/31 00:56:26;;;;;;;4.50;2.00;;;;;;;7.60;90.46;95446.44;5011474;28;24441;-74
2022/05/31 00:58:58;;;;;;;4.30;2.22;;;;;;;7.37;92.17;95439.97;5010926;28;24433;-75
2022/05/31 01:01:25;;;;;;;4.25;2.00;;;;;;;7.31;93.59;95437.75;5011315;28;24447;-74
2022/05/31 01:03:54;;;;;;;3.13;1.77;;;;;;;7.23;93.36;95440.75;5013678;28;24445;-74
2022/05/31 01:06:21;;;;;;;4.88;2.15;;;;;;;6.91;96.74;95442.50;5014649;28;24486;-74
2022/05/31 01:08:48;;;;;;;5.18;2.17;;;;;;;6.74;93.25;95439.97;5010950;28;24845;-74
2022/05/31 01:11:18;;;;;;;2.70;1.90;;;;;;;6.69;93.47;95441.97;5010939;28;24428;-74
2022/05/31 01:13:45;;;;;;;2.88;2.00;;;;;;;6.71;94.39;95441.00;5011098;28;25027;-74
2022/05/31 01:16:14;;;;;;;2.80;2.10;;;;;;;6.69;96.61;95439.41;5010725;28;24989;-74
2022/05/31 01:18:41;;;;;;;7.68;2.40;;;;;;;6.68;98.56;95442.91;5010954;28;24440;-74
2022/05/31 01:21:09;;;;;;;2.53;2.03;;;;;;;6.75;99.20;95444.22;5010654;28;24993;-75
2022/05/31 01:23:42;;;;;;;3.37;2.30;;;;;;;6.85;99.67;95437.66;5010826;28;24486;-74
2022/05/31 01:26:14;;;;;;;3.67;2.27;;;;;;;6.99;98.64;95430.03;5010775;28;24531;-73
2022/05/31 01:28:55;;;;;;;6.25;2.50;;;;;;;7.15;95.00;95432.59;5010976;28;24432;-73
2022/05/31 01:31:26;;;;;;;6.20;2.20;;;;;;;7.12;96.87;95434.50;5010426;28;24440;-74
2022/05/31 01:33:58;;;;;;;4.38;1.90;;;;;;;7.08;97.95;95440.75;5010731;28;24436;-74
2022/05/31 01:36:31;;;;;;;2.88;2.08;;;;;;;7.09;97.78;95432.94;5010793;28;24440;-74
2022/05/31 01:39:02;;;;;;;2.55;1.67;;;;;;;7.10;97.32;95444.91;5010551;28;25019;-74
2022/05/31 01:41:35;;;;;;;2.40;2.00;;;;;;;7.13;98.91;95436.19;4994350;28;24973;-74
2022/05/31 01:44:06;;;;;;;3.45;2.15;;;;;;;7.12;100.00;95442.22;5010536;28;24444;-74
2022/05/31 01:46:35;;;;;;;2.85;2.22;;;;;;;7.17;100.00;95441.09;5010561;28;25020;-74
2022/05/31 01:49:06;;;;;;;2.50;1.98;;;;;;;7.28;99.90;95446.47;5010622;28;25020;-74
2022/05/31 01:51:34;;;;;;;3.10;2.22;;;;;;;7.36;98.84;95438.31;5010353;28;24495;-74
2022/05/31 01:54:01;;;;;;;2.75;1.90;;;;;;;7.41;98.96;95432.91;5010834;28;21247;-74
2022/05/31 01:56:27;;;;;;;3.97;1.97;;;;;;;7.44;98.87;95437.91;5010731;28;24436;-74
2022/05/31 01:58:55;;;;;;;3.30;2.07;;;;;;;7.41;98.07;95438.88;5010481;28;25084;-74
2022/05/31 02:01:23;;;;;;;2.13;1.83;;;;;;;7.44;96.27;95436.16;5010196;28;24467;-74
2022/05/31 02:03:50;;;;;;;3.93;2.23;;;;;;;7.54;91.84;95444.22;4996201;28;24498;-74
2022/05/31 02:06:24;;;;;;;3.70;2.10;;;;;;;7.28;95.17;95441.31;5010615;28;20784;-74
2022/05/31 02:08:52;;;;;;;2.30;1.87;;;;;;;7.27;95.56;95441.44;5010644;28;21241;-74
2022/05/31 02:11:18;;;;;;;2.30;1.80;;;;;;;7.19;93.72;95441.00;5010454;28;24463;-74
2022/05/31 02:13:46;;;;;;;2.00;1.80;;;;;;;7.23;92.52;95440.75;5010766;28;24440;-74
2022/05/31 02:16:13;;;;;;;3.87;2.20;;;;;;;6.99;93.96;95450.63;5010267;28;24540;-73
2022/05/31 02:21:24;;;;;;;2.55;1.70;;;;;;;6.74;96.38;95439.97;5012961;28;24941;-74
2022/05/31 02:23:52;;;;;;;2.47;2.00;;;;;;;6.75;96.02;95445.06;5014360;28;24439;-74
2022/05/31 02:26:19;;;;;;;2.58;1.88;;;;;;;6.56;100.00;95446.91;5014185;28;25028;-73
2022/05/31 02:28:45;;;;;;;2.60;1.95;;;;;;;6.55;100.00;95443.50;5014301;28;24487;-74
2022/05/31 02:31:12;;;;;;;2.17;1.88;;;;;;;6.65;100.00;95446.44;5013916;28;24486;-74
2022/05/31 02:33:38;;;;;;;2.83;1.80;;;;;;;6.65;100.00;95440.47;5013796;28;24619;-74
2022/05/31 02:36:05;;;;;;;4.10;2.35;;;;;;;6.71;100.00;95432.41;5013652;28;24502;-74
2022/05/31 02:38:32;;;;;;;2.30;2.10;;;;;;;6.95;97.62;95438.84;5014564;28;24576;-74
2022/05/31 02:40:59;;;;;;;2.07;1.83;;;;;;;6.80;98.58;95439.66;5014326;28;24516;-74
2022/05/31 02:43:26;;;;;;;2.45;1.83;;;;;;;6.63;100.00;95443.13;5014046;28;24436;-73
2022/05/31 02:45:53;;;;;;;3.13;1.92;;;;;;;6.59;100.00;95433.91;5013849;28;24471;-74
2022/05/31 02:48:20;;;;;;;3.33;1.90;;;;;;;6.59;100.00;95439.03;5014015;28;24531;-74
2022/05/31 02:50:46;;;;;;;4.30;1.83;;;;;;;6.66;100.00;95436.97;5013830;28;24883;-74
2022/05/31 02:53:13;;;;;;;3.88;2.08;;;;;;;6.71;100.00;95437.56;5014077;28;24437;-74
2022/05/31 02:55:39;;;;;;;4.68;2.47;;;;;;;6.75;100.00;95442.50;5013609;28;24526;-74
2022/05/31 02:58:07;;;;;;;2.73;2.00;;;;;;;6.85;99.42;95442.81;5013567;28;25004;-74
2022/05/31 03:00:34;;;;;;;3.15;2.22;;;;;;;6.90;99.39;95447.75;5014000;28;24826;-74
2022/05/31 03:03:00;;;;;;;2.92;1.85;;;;;;;6.87;99.56;95440.19;5014093;28;24968;-74
2022/05/31 03:05:27;;;;;;;3.58;2.42;;;;;;;6.92;98.27;95445.91;5013641;28;24499;-75
2022/05/31 03:07:53;;;;;;;2.05;1.88;;;;;;;6.85;97.90;95442.81;5014046;28;24440;-74
2022/05/31 03:10:20;;;;;;;2.28;1.98;;;;;;;6.84;98.82;95448.88;5013772;28;24799;-74
2022/05/31 03:12:47;;;;;;;4.05;2.20;;;;;;;6.70;100.00;95439.31;5014051;28;24471;-73
2022/05/31 03:15:18;;;;;;;2.30;2.05;;;;;;;6.65;100.00;95437.91;5013527;28;24436;-74
2022/05/31 03:17:50;;;;;;;4.82;1.83;;;;;;;6.59;99.52;95438.22;5013596;28;24428;-74
2022/05/31 03:20:24;;;;;;;1.95;1.58;;;;;;;6.62;97.43;95435.47;5013178;28;24837;-74
2022/05/31 03:22:56;;;;;;;2.30;1.80;;;;;;;6.53;98.00;95431.66;5013033;28;24974;-74
2022/05/31 03:25:26;;;;;;;2.35;1.60;;;;;;;6.41;98.80;95440.81;5012827;28;24503;-74
2022/05/31 03:27:55;;;;;;;2.00;1.80;;;;;;;6.35;97.67;95433.44;5005230;28;24786;-74
2022/05/31 03:30:23;;;;;;;2.92;1.98;;;;;;;6.33;98.20;95437.00;5013012;28;24452;-74
2022/05/31 03:32:51;;;;;;;2.63;1.80;;;;;;;6.30;100.00;95440.53;5012948;28;24444;-74
2022/05/31 03:35:17;;;;;;;2.35;1.42;;;;;;;6.35;100.00;95430.88;5013460;28;24436;-74
2022/05/31 03:37:44;;;;;;;5.00;1.90;;;;;;;6.46;97.70;95422.59;5013031;28;24518;-74
2022/05/31 03:40:55;;;;;;;2.33;1.98;;;;;;;6.32;99.35;95433.59;5013438;28;24889;-74
2022/05/31 03:43:00;;;;;;;2.67;1.83;;;;;;;6.24;100.00;95431.41;5012750;28;24432;-75
2022/05/31 03:45:33;;;;;;;4.30;1.80;;;;;;;6.04;100.00;95432.44;5012939;28;24471;-75
2022/05/31 03:48:00;;;;;;;1.70;1.60;;;;;;;6.11;100.00;95429.53;5012823;28;24967;-74
2022/05/31 03:50:26;;;;;;;2.90;1.60;;;;;;;6.22;100.00;95430.66;5012881;28;24494;-74
2022/05/31 03:52:53;;;;;;;2.15;1.70;;;;;;;6.35;100.00;95432.63;5013237;28;24448;-74
2022/05/31 03:55:19;;;;;;;2.10;1.70;;;;;;;6.43;100.00;95427.91;5012567;28;24443;-74
2022/05/31 03:57:46;;;;;;;2.40;1.77;;;;;;;6.34;100.00;95423.22;5012433;28;24433;-73
2022/05/31 04:00:14;;;;;;;4.65;1.70;;;;;;;6.37;100.00;95426.47;5011634;28;24822;-73
2022/05/31 04:02:42;;;;;;;3.10;1.88;;;;;;;6.57;98.29;95409.19;5001279;28;24436;-74
2022/05/31 04:05:09;;;;;;;3.92;2.10;;;;;;;6.71;98.09;95404.97;5012141;28;25050;-73
2022/05/31 04:07:36;;;;;;;2.42;1.80;;;;;;;6.32;100.00;95413.03;5012556;28;24439;-73
2022/05/31 04:10:03;;;;;;;4.35;2.33;;;;;;;6.23;100.00;95414.34;5013645;28;24446;-73
2022/05/31 04:12:30;;;;;;;5.00;3.20;;;;;;;6.22;100.00;95407.50;5019317;28;24463;-73
2022/05/31 04:14:57;;;;;;;3.22;2.67;;;;;;;6.31;100.00;95401.06;5018183;28;24478;-73
2022/05/31 04:17:23;;;;;;;2.90;2.20;;;;;;;6.34;100.00;95406.06;5006826;28;24885;-73
2022/05/31 04:19:51;;;;;;;4.00;2.00;;;;;;;6.28;100.00;95414.09;5012262;28;24814;-74
2022/05/31 04:22:17;;;;;;;2.42;2.05;;;;;;;6.34;100.00;95411.22;5012457;28;24444;-74
2022/05/31 04:24:44;;;;;;;3.20;2.60;;;;;;;6.41;100.00;95407.38;5011997;28;24443;-73
2022/05/31 04:27:16;;;;;;;2.40;2.00;;;;;;;6.49;100.00;95407.00;5012084;28;24443;-73
2022/05/31 04:29:42;;;;;;;2.55;1.75;;;;;;;6.58;100.00;95411.66;5011770;28;25043;-74
2022/05/31 04:32:09;;;;;;;2.67;1.80;;;;;;;6.69;100.00;95414.50;5011675;28;24440;-73
2022/05/31 04:34:35;;;;;;;3.97;1.90;;;;;;;6.80;100.00;95419.06;5010911;28;24490;-74
2022/05/31 04:37:03;;;;;;;2.80;2.00;;;;;;;6.94;100.00;95426.88;5012262;28;24441;-73
2022/05/31 04:39:30;;;;;;;2.80;2.00;;;;;;;7.05;100.00;95418.59;5012328;28;24433;-73
2022/05/31 04:41:56;;;;;;;1.90;1.70;;;;;;;7.27;100.00;95423.41;5011516;28;24881;-73
2022/05/31 04:44:23;;;;;;;2.47;1.92;;;;;;;7.38;99.28;95430.50;5010228;28;24451;-73
2022/05/31 04:46:49;;;;;;;3.22;2.13;;;;;;;7.44;98.24;95422.44;5011910;28;24436;-73
2022/05/31 04:49:17;;;;;;;3.30;2.23;;;;;;;7.61;99.19;95424.91;5011553;28;24536;-74
2022/05/31 04:51:44;;;;;;;2.58;2.00;;;;;;;7.76;98.62;95424.03;5012085;28;21152;-73
2022/05/31 04:54:12;;;;;;;4.68;2.20;;;;;;;7.80;100.00;95424.69;5012234;28;24520;-74
2022/05/31 04:56:38;;;;;;;3.45;2.28;;;;;;;7.87;99.84;95420.84;5012222;28;20828;-74
2022/05/31 04:59:05;;;;;;;2.25;1.85;;;;;;;7.95;98.14;95413.47;5012412;28;21338;-74
2022/05/31 05:01:35;;;;;;;2.90;1.90;;;;;;;8.10;96.34;95416.09;5012035;28;24465;-74
2022/05/31 05:04:01;;;;;;;2.47;1.70;;;;;;;8.11;94.38;95413.41;5011764;28;20767;-74
2022/05/31 05:06:28;;;;;;;3.92;2.08;;;;;;;8.25;94.63;95413.44;5010804;28;24437;-74
2022/05/31 05:08:54;;;;;;;2.97;1.92;;;;;;;8.19;92.89;95408.66;5012396;28;24441;-74
2022/05/31 05:11:23;;;;;;;2.70;1.60;;;;;;;8.30;95.75;95409.75;5011493;28;24795;-74
2022/05/31 05:13:51;;;;;;;4.60;2.35;;;;;;;8.53;100.00;95403.22;4996086;28;20724;-74
2022/05/31 05:16:18;;;;;;;4.38;2.05;;;;;;;8.57;100.00;95405.56;5011523;28;21648;-74
2022/05/31 05:18:45;;;;;;;2.95;1.88;;;;;;;8.62;100.00;95408.69;5011721;28;20824;-74
2022/05/31 05:21:14;;;;;;;5.55;2.20;;;;;;;8.65;94.27;95410.25;5011646;28;21142;-74
2022/05/31 05:23:41;;;;;;;4.00;1.85;;;;;;;8.53;92.18;95413.56;5011644;28;24467;-74
2022/05/31 05:26:08;;;;;;;7.43;2.20;;;;;;;8.44;92.70;95410.63;5011148;28;20782;-74
2022/05/31 05:31:22;;;;;;;3.83;1.98;;;;;;;8.81;90.31;95410.97;5011128;28;20677;-74
2022/05/31 05:33:48;;;;;;;5.70;2.60;;;;;;;8.47;91.47;95407.03;5011520;28;20816;-74
2022/05/31 05:36:16;;;;;;;3.58;2.70;;;;;;;8.41;90.67;95409.97;5011199;28;20762;-74
2022/05/31 05:38:42;;;;;;;6.95;2.90;;;;;;;8.43;92.56;95410.72;5011191;28;24857;-74
2022/05/31 05:41:09;;;;;;;5.10;2.40;;;;;;;8.57;91.55;95415.06;5011019;28;20790;-74
2022/05/31 05:43:37;;;;;;;11.70;2.90;;;;;;;8.66;90.45;95415.31;5011052;28;20841;-74
2022/05/31 05:46:04;;;;;;;5.45;2.25;;;;;;;8.81;89.82;95404.97;5010809;28;20875;-74
2022/05/31 05:48:30;;;;;;;3.63;2.45;;;;;;;8.92;90.74;95400.78;5010468;28;24495;-75
2022/05/31 05:50:56;;;;;;;10.02;2.95;;;;;;;9.08;90.50;95403.25;5008193;28;24464;-74
2022/05/31 05:53:23;;;;;;;5.82;2.75;;;;;;;9.18;91.17;95416.44;5002130;28;24527;-74
2022/05/31 05:55:49;;;;;;;5.93;2.67;;;;;;;9.60;89.76;95412.03;5010214;28;24451;-74
2022/05/31 05:58:16;;;;;;;10.25;2.50;;;;;;;9.76;87.09;95411.88;5011421;28;24507;-74
2022/05/31 06:00:48;;;;;;;5.97;2.67;;;;;;;9.83;85.91;95410.56;5011707;28;25039;-74
2022/05/31 06:03:20;;;;;;;2.65;1.90;;;;;;;9.84;85.56;95415.63;5012165;28;20809;-74
2022/05/31 06:05:48;;;;;;;4.05;2.13;;;;;;;9.67;85.06;95413.28;5012261;28;20762;-74
2022/05/31 06:08:20;;;;;;;4.68;2.03;;;;;;;9.78;84.30;95416.00;5012598;28;24420;-75
2022/05/31 06:10:58;;;;;;;5.10;2.38;;;;;;;9.80;84.13;95413.34;5011739;28;24440;-74
2022/05/31 06:13:27;;;;;;;4.07;2.20;;;;;;;10.14;85.67;95409.34;5010518;28;24790;-74
2022/05/31 06:15:57;;;;;;;4.03;2.40;;;;;;;10.52;83.85;95405.94;5001684;28;25028;-74
2022/05/31 06:18:28;;;;;;;3.67;2.08;;;;;;;10.92;83.19;95405.81;5010687;28;24443;-74
2022/05/31 06:21:00;;;;;;;4.95;1.98;;;;;;;10.99;77.54;95404.44;5010406;28;24468;-75
2022/05/31 06:23:27;;;;;;;6.43;2.30;;;;;;;11.01;77.94;95402.56;5010496;28;24436;-74
2022/05/31 06:25:55;;;;;;;8.65;2.40;;;;;;;11.04;78.25;95405.75;5010478;28;24428;-73
2022/05/31 06:28:21;;;;;;;3.55;2.15;;;;;;;11.19;78.76;95408.19;5010365;28;24443;-74
2022/05/31 06:30:47;;;;;;;23.20;2.40;;;;;;;11.50;77.60;95401.66;5010416;28;24463;-73
2022/05/31 06:33:15;;;;;;;6.07;2.25;;;;;;;11.96;74.80;95406.94;5010048;28;24433;-73
2022/05/31 06:35:42;;;;;;;2.83;1.97;;;;;;;12.11;71.38;95415.34;5010038;28;24453;-74
2022/05/31 06:38:08;;;;;;;4.60;2.00;;;;;;;12.33;71.64;95409.38;5010157;28;24471;-73
2022/05/31 06:40:35;;;;;;;5.93;2.17;;;;;;;12.65;69.00;95414.72;5010472;28;24803;-74
2022/05/31 06:43:01;;;;;;;4.13;2.25;;;;;;;12.59;70.75;95397.81;5010558;28;24443;-74
2022/05/31 06:45:27;;;;;;;4.97;2.08;;;;;;;12.68;67.53;95398.91;5009589;28;24440;-73
2022/05/31 06:47:54;;;;;;;6.75;1.83;;;;;;;13.02;67.16;95399.72;5010304;28;24436;-74
2022/05/31 06:50:22;;;;;;;8.35;2.30;;;;;;;13.49;65.51;95395.13;5010493;28;24575;-76
2022/05/31 06:58:16;;;;;;;6.30;1.87;;;;;;;14.28;59.79;95393.00;4992313;28;24470;-76
2022/05/31 07:00:43;;;;;;;7.00;2.03;;;;;;;14.56;59.71;95385.50;5001435;28;24456;-78
2022/05/31 07:03:09;;;;;;;4.70;1.20;;;;;;;14.82;57.35;95393.69;5014709;28;24428;-79
2022/05/31 07:05:38;;;;;;;3.55;1.45;;;;;;;15.24;56.80;95396.19;5013656;28;24459;-78
2022/05/31 07:08:05;;;;;;;2.50;1.73;;;;;;;15.40;57.71;95395.66;5015592;28;24448;-80
2022/05/31 07:10:31;;;;;;;3.85;1.75;;;;;;;15.59;55.38;95393.06;5017606;28;24994;-79
2022/05/31 07:12:58;;;;;;;5.20;1.90;;;;;;;15.05;56.98;95399.53;5016915;28;24440;-79
2022/05/31 07:15:26;;;;;;;7.40;1.90;;;;;;;14.83;58.13;95392.75;5020309;28;24436;-79
2022/05/31 07:17:52;;;;;;;3.13;1.70;;;;;;;14.91;57.90;95389.50;5020508;28;24803;-80
2022/05/31 07:20:19;;;;;;;2.33;1.20;;;;;;;15.14;58.93;95390.94;5018844;28;24446;-79
2022/05/31 07:22:47;;;;;;;2.50;1.60;;;;;;;15.35;57.70;95390.00;5022404;28;24524;-79
2022/05/31 07:25:13;;;;;;;3.10;1.23;;;;;;;15.54;56.66;95394.44;5011202;28;24444;-80
2022/05/31 07:27:40;;;;;;;1.70;1.25;;;;;;;15.49;56.99;95397.44;5022129;28;24424;-79
2022/05/31 07:30:08;;;;;;;4.50;1.63;;;;;;;15.47;58.55;95389.75;5020420;28;24441;-80
2022/05/31 07:32:34;;;;;;;4.97;1.70;;;;;;;15.23;58.40;95390.13;5015742;28;25004;-78
2022/05/31 07:35:01;;;;;;;2.40;1.55;;;;;;;15.12;59.14;95389.41;5016178;28;24423;-79
2022/05/31 07:37:28;;;;;;;6.23;1.77;;;;;;;15.24;59.43;95389.19;5014199;28;24467;-82
2022/05/31 07:39:55;;;;;;;4.93;1.52;;;;;;;15.20;58.49;95390.41;5014155;28;24502;-78
2022/05/31 07:42:22;;;;;;;1.70;1.30;;;;;;;15.51;59.39;95387.72;5017189;28;24444;-75
2022/05/31 07:44:48;;;;;;;4.38;1.50;;;;;;;15.51;58.70;95390.31;5014982;28;24419;-78
2022/05/31 07:47:15;;;;;;;2.05;1.42;;;;;;;15.50;59.03;95393.91;5014624;28;24945;-77
2022/05/31 07:49:41;;;;;;;3.63;1.35;;;;;;;15.56;58.94;95392.50;5013568;28;24432;-76
2022/05/31 07:52:09;;;;;;;2.77;1.30;;;;;;;15.71;61.28;95386.78;5013489;28;24931;-76
2022/05/31 07:54:36;;;;;;;4.75;1.60;;;;;;;16.03;58.86;95382.25;5012967;28;24980;-76
2022/05/31 07:57:05;;;;;;;4.13;1.40;;;;;;;16.29;57.71;95387.72;5012966;28;25170;-75
2022/05/31 07:59:32;;;;;;;3.58;1.42;;;;;;;16.56;55.45;95382.53;5012314;28;24436;-77
2022/05/31 08:01:59;;;;;;;2.80;1.48;;;;;;;17.18;55.12;95377.63;5012984;28;24502;-75
2022/05/31 08:04:26;;;;;;;3.00;1.30;;;;;;;17.58;54.13;95381.66;5012660;28;24487;-77
2022/05/31 08:06:52;;;;;;;4.43;1.33;;;;;;;17.75;51.48;95370.38;5012435;28;24432;-75
2022/05/31 08:09:21;;;;;;;3.00;1.30;;;;;;;17.41;52.47;95367.56;5013445;28;24440;-76
2022/05/31 08:11:48;;;;;;;2.17;1.40;;;;;;;17.64;52.86;95370.56;5012983;28;24619;-76
2022/05/31 08:14:15;;;;;;;3.28;1.35;;;;;;;18.01;52.43;95365.19;5012901;28;24498;-76
2022/05/31 08:16:42;;;;;;;4.50;1.42;;;;;;;18.13;51.22;95369.25;5012274;28;24803;-75
2022/05/31 08:19:08;;;;;;;4.25;1.38;;;;;;;18.42;51.06;95362.88;5012332;28;24448;-77
2022/05/31 08:21:35;;;;;;;4.80;1.67;;;;;;;18.68;49.32;95362.84;5012181;28;24510;-76
2022/05/31 08:24:04;;;;;;;2.63;1.45;;;;;;;18.62;49.93;95364.31;5011930;28;24467;-77
2022/05/31 08:26:30;;;;;;;3.92;1.30;;;;;;;18.86;48.68;95357.56;5013878;28;24845;-78
2022/05/31 08:28:57;;;;;;;2.95;1.25;;;;;;;18.83;49.12;95356.06;5012898;28;24439;-77
2022/05/31 08:31:27;;;;;;;2.30;1.40;;;;;;;18.89;49.05;95349.38;5012413;28;24444;-75
2022/05/31 08:33:54;;;;;;;4.80;1.40;;;;;;;18.62;46.70;95355.63;4996169;28;24452;-75
2022/05/31 08:36:21;;;;;;;3.13;1.38;;;;;;;18.52;47.40;95363.59;5012279;28;24447;-76
2022/05/31 08:38:48;;;;;;;2.47;1.40;;;;;;;18.71;48.31;95359.97;5012156;28;24436;-77
2022/05/31 08:41:27;;;;;;;4.32;1.50;;;;;;;18.96;48.58;95360.09;5012081;28;24439;-75
2022/05/31 08:44:06;;;;;;;2.97;1.40;;;;;;;19.15;47.92;95356.38;5011303;28;24432;-76
2022/05/31 08:46:46;;;;;;;6.00;1.63;;;;;;;18.95;47.65;95355.78;5011491;28;24436;-78
2022/05/31 08:49:19;;;;;;;1.93;1.27;;;;;;;18.65;46.80;95357.09;5008151;28;24441;-77
2022/05/31 08:51:54;;;;;;;2.57;1.30;;;;;;;18.48;47.89;95362.25;5015037;28;24471;-80
2022/05/31 08:57:24;;;;;;;3.43;1.30;;;;;;;18.75;45.70;95366.53;5015117;28;24459;-79
2022/05/31 08:59:54;;;;;;;2.50;1.25;;;;;;;18.43;46.84;95366.31;5014136;28;24444;-79
2022/05/31 09:02:25;;;;;;;1.98;1.20;;;;;;;18.25;46.20;95375.06;5014739;28;24459;-79
2022/05/31 09:05:02;;;;;;;2.33;1.33;;;;;;;18.37;47.90;95376.44;5013097;28;24532;-78
2022/05/31 09:07:35;;;;;;;2.80;1.25;;;;;;;18.33;45.77;95374.28;5014106;28;24475;-79
2022/05/31 09:10:06;;;;;;;1.88;1.30;;;;;;;18.66;47.70;95371.88;5014159;28;24444;-77
2022/05/31 09:12:42;;;;;;;2.20;1.10;;;;;;;18.54;46.77;95364.28;5014944;28;24475;-77
2022/05/31 09:15:14;;;;;;;5.25;1.50;;;;;;;19.05;51.01;95367.81;4996535;28;25028;-78
2022/05/31 09:17:54;;;;;;;2.08;1.02;;;;;;;19.31;49.28;95372.97;5014614;28;24433;-77
2022/05/31 09:20:29;;;;;;;2.08;1.25;;;;;;;19.26;48.18;95370.03;5012521;28;24440;-79
2022/05/31 09:22:55;;;;;;;3.28;1.20;;;;;;;19.33;49.34;95368.41;5013060;28;24459;-79
2022/05/31 09:25:22;;;;;;;1.73;1.00;;;;;;;19.40;50.13;95371.22;5012942;28;24487;-79
2022/05/31 09:27:50;;;;;;;3.67;1.13;;;;;;;19.13;47.31;95377.50;5010583;28;24444;-78
2022/05/31 09:30:24;;;;;;;3.42;1.42;;;;;;;18.54;48.84;95376.53;5011892;28;24448;-77
2022/05/31 09:33:16;;;;;;;3.25;1.20;;;;;;;18.70;47.75;95379.28;5012465;28;24439;-80
2022/05/31 09:35:54;;;;;;;1.42;1.00;;;;;;;18.22;47.13;95385.84;5010471;28;24974;-77
2022/05/31 09:38:46;;;;;;;3.10;1.40;;;;;;;18.09;47.02;95380.16;5015380;28;24463;-78
2022/05/31 09:41:19;;;;;;;3.08;1.10;;;;;;;17.96;46.46;95383.19;5013340;28;24502;-78
2022/05/31 09:43:49;;;;;;;2.28;1.02;;;;;;;18.05;46.39;95389.31;5013131;28;24456;-77
2022/05/31 09:46:27;;;;;;;4.70;1.37;;;;;;;17.99;46.86;95384.69;5013530;28;24859;-78
2022/05/31 09:48:57;;;;;;;2.70;1.20;;;;;;;18.21;47.38;95386.81;5012768;28;24439;-77
2022/05/31 09:51:29;;;;;;;2.30;1.07;;;;;;;18.35;47.30;95381.03;5012735;28;24447;-77
2022/05/31 09:59:28;;;;;;;1.60;0.90;;;;;;;18.56;44.91;95375.41;5012165;28;24506;-77
2022/05/31 10:01:55;;;;;;;5.63;1.17;;;;;;;18.48;46.91;95378.00;5009412;28;24486;-77
2022/05/31 10:04:26;;;;;;;1.17;0.80;;;;;;;18.54;47.65;95369.53;5012327;28;24869;-77
2022/05/31 10:06:59;;;;;;;2.20;1.20;;;;;;;18.46;47.03;95377.31;5013462;28;24440;-77
2022/05/31 10:09:31;;;;;;;2.53;1.45;;;;;;;18.41;45.63;95368.28;5013171;28;24524;-77
2022/05/31 10:12:13;;;;;;;3.40;1.45;;;;;;;18.48;46.90;95367.50;5013091;28;25172;-78
2022/05/31 10:14:43;;;;;;;2.42;1.40;;;;;;;18.51;44.88;95372.44;5012989;28;24826;-77
2022/05/31 10:17:28;;;;;;;2.10;0.88;;;;;;;18.48;45.68;95378.00;5012927;28;24813;-78
2022/05/31 10:20:12;;;;;;;3.17;1.17;;;;;;;18.48;46.40;95383.25;5013066;28;24436;-77
2022/05/31 10:22:40;;;;;;;1.50;1.20;;;;;;;18.43;47.27;95372.41;4996747;28;24449;-77
2022/05/31 10:25:21;;;;;;;3.17;1.13;;;;;;;18.52;46.25;95374.09;5013692;28;24507;-78
2022/05/31 10:27:48;;;;;;;1.92;1.10;;;;;;;18.62;42.88;95369.56;5013805;28;24436;-77
2022/05/31 10:30:20;;;;;;;2.78;1.17;;;;;;;18.58;43.92;95365.59;5014061;28;24420;-77
2022/05/31 10:32:50;;;;;;;2.92;1.10;;;;;;;18.65;42.30;95364.97;5012748;28;24451;-77
2022/05/31 10:35:21;;;;;;;1.90;1.10;;;;;;;18.66;43.08;95364.81;5014564;28;24518;-78
2022/05/31 10:37:55;;;;;;;2.17;1.10;;;;;;;18.66;42.53;95369.25;5017013;28;24401;-79
2022/05/31 10:40:27;;;;;;;5.70;1.30;;;;;;;18.56;43.83;95378.03;5020909;28;24472;-78
2022/05/31 10:42:58;;;;;;;2.28;0.90;;;;;;;18.57;42.89;95374.44;5019573;28;24476;-78
2022/05/31 10:45:28;;;;;;;2.25;1.30;;;;;;;18.69;45.24;95371.53;5019424;28;24435;-78
2022/05/31 10:47:57;;;;;;;3.35;1.40;;;;;;;18.64;46.22;95369.41;5018499;28;24814;-78
2022/05/31 10:50:34;;;;;;;2.88;1.30;;;;;;;18.56;43.26;95375.41;5019073;28;24440;-78
2022/05/31 10:53:13;;;;;;;1.80;1.10;;;;;;;18.70;41.94;95368.78;5019015;28;24451;-78
2022/05/31 10:55:43;;;;;;;2.00;1.10;;;;;;;18.97;40.28;95362.53;5017619;28;24419;-79
2022/05/31 10:58:27;;;;;;;1.90;1.10;;;;;;;18.75;41.25;95363.09;5017250;28;24423;-79
2022/05/31 11:00:59;;;;;;;4.15;1.23;;;;;;;18.95;43.64;95375.00;5017500;28;24958;-78
2022/05/31 11:03:40;;;;;;;3.53;1.13;;;;;;;19.11;42.11;95366.38;5017099;28;25223;-77
2022/05/31 11:06:29;;;;;;;2.97;1.25;;;;;;;18.98;40.78;95369.41;5017040;28;24436;-77
2022/05/31 11:12:10;;;;;;;1.73;1.10;;;;;;;18.90;45.23;95377.25;5004219;28;24476;-77
2022/05/31 11:14:59;;;;;;;4.53;1.42;;;;;;;19.13;44.45;95368.81;5016447;28;24443;-76
2022/05/31 11:17:44;;;;;;;2.40;1.20;;;;;;;19.25;44.99;95372.81;5016341;28;24827;-79
2022/05/31 11:20:17;;;;;;;2.75;1.40;;;;;;;19.19;46.07;95376.06;5015837;28;24466;-78
2022/05/31 11:22:55;;;;;;;3.63;1.50;;;;;;;19.02;45.46;95378.66;5015713;28;24989;-77
2022/05/31 11:26:07;;;;;;;1.70;1.20;;;;;;;18.92;42.84;95380.56;5014084;28;24440;-77
2022/05/31 11:28:51;;;;;;;2.03;1.13;;;;;;;18.76;41.68;95377.84;4954072;29;24434;-78
2022/05/31 11:31:30;;;;;;;2.92;0.95;;;;;;;18.78;42.30;95378.53;5009013;28;24452;-77
2022/05/31 11:34:18;;;;;;;3.08;1.25;;;;;;;18.68;40.33;95389.09;5015177;28;24879;-77
2022/05/31 11:36:57;;;;;;;2.70;1.10;;;;;;;19.03;38.63;95387.34;5015748;28;24458;-78
2022/05/31 11:39:48;;;;;;;1.33;0.82;;;;;;;19.17;38.87;95380.66;5013137;28;24416;-77
2022/05/31 11:42:33;;;;;;;4.32;1.42;;;;;;;19.10;36.53;95381.31;4995254;28;24421;-78
2022/05/31 11:45:11;;;;;;;1.92;1.08;;;;;;;19.30;37.07;95378.41;5011214;28;24443;-80
2022/05/31 11:48:17;;;;;;;3.45;1.10;;;;;;;19.32;36.19;95373.84;4999937;28;24437;-78
2022/05/31 11:50:55;;;;;;;3.50;1.17;;;;;;;19.36;36.60;95379.59;5015408;28;24448;-79
2022/05/31 11:53:50;;;;;;;1.38;0.90;;;;;;;19.27;36.84;95387.41;5014061;28;24435;-79
2022/05/31 11:56:25;;;;;;;4.05;1.20;;;;;;;19.45;36.13;95382.06;5014090;28;24460;-79
2022/05/31 11:58:57;;;;;;;4.35;1.20;;;;;;;19.43;36.95;95384.03;5014927;28;24457;-78
2022/05/31 12:01:28;;;;;;;3.08;1.27;;;;;;;19.24;36.67;95381.66;5001130;28;24845;-79
2022/05/31 12:04:04;;;;;;;1.85;0.90;;;;;;;19.51;37.45;95377.97;5015574;28;24471;-78
2022/05/31 12:06:39;;;;;;;3.60;0.90;;;;;;;19.56;37.40;95386.19;5010844;28;24432;-78
2022/05/31 12:09:14;;;;;;;1.80;0.97;;;;;;;19.33;35.71;95380.72;5016408;28;24464;-81
2022/05/31 12:11:47;;;;;;;1.87;1.03;;;;;;;19.12;35.95;95390.81;5015675;28;24899;-80
2022/05/31 12:14:15;;;;;;;2.38;1.10;;;;;;;19.13;36.58;95388.00;5014566;28;24436;-78